sensor_id;sensor_type;location;lat;lon;timestamp;pressure;altitude;pressure_sealevel;temperature;humidity
83488;BME280;73424;49.994;8.184;2024-03-08T00:01:00;99954.22;;;5.70;61.49
83488;BME280;73424;49.994;8.184;2024-03-08T00:03:25;100109.63;;;6.48;61.55
83488;BME280;73424;49.994;8.184;2024-03-08T00:05:50;100089.44;;;6.39;61.04
83488;BME280;73424;49.994;8.184;2024-03-08T00:08:16;100085.06;;;6.24;62.22
83488;BME280;73424;49.994;8.184;2024-03-08T00:10:41;100092.84;;;6.17;62.42
83488;BME280;73424;49.994;8.184;2024-03-08T00:13:06;100091.81;;;6.18;62.04
83488;BME280;73424;49.994;8.184;2024-03-08T00:15:31;100059.25;;;5.93;62.41
83488;BME280;73424;49.994;8.184;2024-03-08T00:17:57;100081.63;;;5.99;62.26
83488;BME280;73424;49.994;8.184;2024-03-08T00:20:23;100074.00;;;5.80;63.00
83488;BME280;73424;49.994;8.184;2024-03-08T00:22:48;100003.22;;;5.49;63.12
83488;BME280;73424;49.994;8.184;2024-03-08T00:25:14;100067.38;;;5.68;63.50
83488;BME280;73424;49.994;8.184;2024-03-08T00:27:40;100043.88;;;5.57;63.95
83488;BME280;73424;49.994;8.184;2024-03-08T00:30:06;100032.00;;;5.36;64.01
83488;BME280;73424;49.994;8.184;2024-03-08T00:32:32;100042.75;;;5.43;64.20
83488;BME280;73424;49.994;8.184;2024-03-08T00:34:57;100078.28;;;5.57;63.75
83488;BME280;73424;49.994;8.184;2024-03-08T00:37:23;100087.56;;;5.53;63.59
83488;BME280;73424;49.994;8.184;2024-03-08T00:39:49;100052.84;;;5.31;64.35
83488;BME280;73424;49.994;8.184;2024-03-08T00:42:15;100018.91;;;5.03;64.08
83488;BME280;73424;49.994;8.184;2024-03-08T00:44:41;100038.56;;;5.08;64.56
83488;BME280;73424;49.994;8.184;2024-03-08T00:47:06;100065.56;;;5.28;64.22
83488;BME280;73424;49.994;8.184;2024-03-08T00:49:32;100035.09;;;5.00;65.00
83488;BME280;73424;49.994;8.184;2024-03-08T00:51:57;100022.69;;;4.84;65.14
83488;BME280;73424;49.994;8.184;2024-03-08T00:54:22;100031.97;;;5.04;64.36
83488;BME280;73424;49.994;8.184;2024-03-08T00:56:48;99929.44;;;4.33;64.82
83488;BME280;73424;49.994;8.184;2024-03-08T00:59:13;100028.28;;;4.73;65.75
83488;BME280;73424;49.994;8.184;2024-03-08T01:01:39;100015.38;;;4.70;64.89
83488;BME280;73424;49.994;8.184;2024-03-08T01:04:05;100052.41;;;4.78;65.87
83488;BME280;73424;49.994;8.184;2024-03-08T01:06:30;100036.66;;;4.68;65.80
83488;BME280;73424;49.994;8.184;2024-03-08T01:08:56;100058.84;;;4.83;66.11
83488;BME280;73424;49.994;8.184;2024-03-08T01:11:21;100057.50;;;4.71;66.62
83488;BME280;73424;49.994;8.184;2024-03-08T01:13:46;100047.88;;;4.62;66.23
83488;BME280;73424;49.994;8.184;2024-03-08T01:16:13;100036.66;;;4.60;66.36
83488;BME280;73424;49.994;8.184;2024-03-08T01:18:38;100038.78;;;4.49;66.13
83488;BME280;73424;49.994;8.184;2024-03-08T01:21:04;100011.13;;;4.35;66.05
83488;BME280;73424;49.994;8.184;2024-03-08T01:23:29;100035.41;;;4.30;66.32
83488;BME280;73424;49.994;8.184;2024-03-08T01:25:55;100006.69;;;4.35;65.58
83488;BME280;73424;49.994;8.184;2024-03-08T01:28:25;100028.00;;;4.42;66.52
83488;BME280;73424;49.994;8.184;2024-03-08T01:30:51;99994.38;;;4.10;65.98
83488;BME280;73424;49.994;8.184;2024-03-08T01:33:24;100016.72;;;4.24;65.80
83488;BME280;73424;49.994;8.184;2024-03-08T01:35:51;100029.75;;;4.25;66.41
83488;BME280;73424;49.994;8.184;2024-03-08T01:38:16;99988.56;;;4.07;66.38
83488;BME280;73424;49.994;8.184;2024-03-08T01:40:41;99999.50;;;4.12;66.27
83488;BME280;73424;49.994;8.184;2024-03-08T01:43:20;99991.59;;;4.12;65.85
83488;BME280;73424;49.994;8.184;2024-03-08T01:45:47;100021.78;;;4.17;66.55
83488;BME280;73424;49.994;8.184;2024-03-08T01:48:13;100028.75;;;4.18;66.73
83488;BME280;73424;49.994;8.184;2024-03-08T01:50:40;99915.41;;;3.49;66.97
83488;BME280;73424;49.994;8.184;2024-03-08T01:53:06;99980.75;;;3.89;66.65
83488;BME280;73424;49.994;8.184;2024-03-08T01:55:32;99983.03;;;3.84;67.30
83488;BME280;73424;49.994;8.184;2024-03-08T01:58:01;100006.50;;;3.95;67.37
83488;BME280;73424;49.994;8.184;2024-03-08T02:00:28;99964.16;;;3.71;67.68
83488;BME280;73424;49.994;8.184;2024-03-08T02:02:55;99983.66;;;3.78;67.89
83488;BME280;73424;49.994;8.184;2024-03-08T02:05:21;99993.09;;;3.89;67.35
83488;BME280;73424;49.994;8.184;2024-03-08T02:07:46;99987.25;;;3.77;68.35
83488;BME280;73424;49.994;8.184;2024-03-08T02:10:12;99961.00;;;3.67;68.70
83488;BME280;73424;49.994;8.184;2024-03-08T02:12:38;99983.94;;;3.67;69.18
83488;BME280;73424;49.994;8.184;2024-03-08T02:15:04;99980.59;;;3.65;68.84
83488;BME280;73424;49.994;8.184;2024-03-08T02:17:31;99980.97;;;3.70;68.40
83488;BME280;73424;49.994;8.184;2024-03-08T02:19:57;99937.41;;;3.40;68.63
83488;BME280;73424;49.994;8.184;2024-03-08T02:22:22;99951.13;;;3.44;69.24
83488;BME280;73424;49.994;8.184;2024-03-08T02:24:48;99927.34;;;3.36;68.75
83488;BME280;73424;49.994;8.184;2024-03-08T02:27:13;99966.31;;;3.50;68.91
83488;BME280;73424;49.994;8.184;2024-03-08T02:29:39;99981.94;;;3.69;68.99
83488;BME280;73424;49.994;8.184;2024-03-08T02:32:06;99966.53;;;3.56;69.19
83488;BME280;73424;49.994;8.184;2024-03-08T02:34:31;99950.38;;;3.34;69.85
83488;BME280;73424;49.994;8.184;2024-03-08T02:36:56;99973.94;;;3.53;70.35
83488;BME280;73424;49.994;8.184;2024-03-08T02:39:22;99942.00;;;3.30;70.24
83488;BME280;73424;49.994;8.184;2024-03-08T02:41:47;99952.09;;;3.43;69.81
83488;BME280;73424;49.994;8.184;2024-03-08T02:44:12;99919.63;;;3.16;70.73
83488;BME280;73424;49.994;8.184;2024-03-08T02:46:37;99932.25;;;3.30;70.10
83488;BME280;73424;49.994;8.184;2024-03-08T02:49:03;99917.34;;;3.21;70.00
83488;BME280;73424;49.994;8.184;2024-03-08T02:51:29;99927.41;;;3.18;69.99
83488;BME280;73424;49.994;8.184;2024-03-08T02:53:54;99943.22;;;3.44;69.99
83488;BME280;73424;49.994;8.184;2024-03-08T02:56:19;99959.56;;;3.47;70.63
83488;BME280;73424;49.994;8.184;2024-03-08T02:58:47;99957.91;;;3.46;70.25
83488;BME280;73424;49.994;8.184;2024-03-08T03:01:14;99925.78;;;3.25;69.64
83488;BME280;73424;49.994;8.184;2024-03-08T03:03:40;99883.75;;;2.98;70.47
83488;BME280;73424;49.994;8.184;2024-03-08T03:06:06;99953.25;;;3.40;70.49
83488;BME280;73424;49.994;8.184;2024-03-08T03:08:32;99855.22;;;2.67;70.99
83488;BME280;73424;49.994;8.184;2024-03-08T03:10:57;99950.28;;;3.43;70.00
83488;BME280;73424;49.994;8.184;2024-03-08T03:13:23;99886.25;;;2.99;70.24
83488;BME280;73424;49.994;8.184;2024-03-08T03:15:48;99905.28;;;3.11;71.25
83488;BME280;73424;49.994;8.184;2024-03-08T03:18:13;99920.91;;;3.12;70.90
83488;BME280;73424;49.994;8.184;2024-03-08T03:20:39;99916.22;;;2.98;71.46
83488;BME280;73424;49.994;8.184;2024-03-08T03:23:08;99938.44;;;3.21;70.76
83488;BME280;73424;49.994;8.184;2024-03-08T03:25:34;99931.31;;;3.14;71.48
83488;BME280;73424;49.994;8.184;2024-03-08T03:28:03;99925.31;;;3.04;71.08
83488;BME280;73424;49.994;8.184;2024-03-08T03:30:29;99919.69;;;2.99;72.14
83488;BME280;73424;49.994;8.184;2024-03-08T03:33:02;99912.59;;;2.99;71.52
83488;BME280;73424;49.994;8.184;2024-03-08T03:35:32;99937.34;;;3.06;71.48
83488;BME280;73424;49.994;8.184;2024-03-08T03:37:57;99940.59;;;3.00;72.09
83488;BME280;73424;49.994;8.184;2024-03-08T03:40:39;99939.44;;;3.03;71.92
83488;BME280;73424;49.994;8.184;2024-03-08T03:43:07;99913.13;;;2.85;72.34
83488;BME280;73424;49.994;8.184;2024-03-08T03:45:32;99900.88;;;2.76;72.73
83488;BME280;73424;49.994;8.184;2024-03-08T03:48:02;99924.66;;;2.84;72.49
83488;BME280;73424;49.994;8.184;2024-03-08T03:50:28;99829.69;;;2.25;72.62
83488;BME280;73424;49.994;8.184;2024-03-08T03:52:53;99937.44;;;2.79;72.98
83488;BME280;73424;49.994;8.184;2024-03-08T03:55:18;99830.63;;;2.24;72.88
83488;BME280;73424;49.994;8.184;2024-03-08T03:57:44;99883.31;;;2.41;72.99
83488;BME280;73424;49.994;8.184;2024-03-08T04:00:11;99893.81;;;2.59;72.41
83488;BME280;73424;49.994;8.184;2024-03-08T04:02:38;99935.13;;;2.76;73.48
83488;BME280;73424;49.994;8.184;2024-03-08T04:05:07;99892.47;;;2.55;73.50
83488;BME280;73424;49.994;8.184;2024-03-08T04:07:33;99924.53;;;2.68;73.23
83488;BME280;73424;49.994;8.184;2024-03-08T04:10:00;99886.75;;;2.42;73.66
83488;BME280;73424;49.994;8.184;2024-03-08T04:12:25;99920.09;;;2.68;73.19
83488;BME280;73424;49.994;8.184;2024-03-08T04:14:50;99898.34;;;2.49;73.59
83488;BME280;73424;49.994;8.184;2024-03-08T04:17:16;99897.56;;;2.39;73.68
83488;BME280;73424;49.994;8.184;2024-03-08T04:19:42;99878.53;;;2.27;74.05
83488;BME280;73424;49.994;8.184;2024-03-08T04:22:07;99922.19;;;2.47;74.55
83488;BME280;73424;49.994;8.184;2024-03-08T04:24:33;99926.69;;;2.37;74.91
83488;BME280;73424;49.994;8.184;2024-03-08T04:26:59;99778.56;;;1.47;74.59
83488;BME280;73424;49.994;8.184;2024-03-08T04:29:24;99880.34;;;2.27;74.49
83488;BME280;73424;49.994;8.184;2024-03-08T04:31:49;99887.63;;;2.33;75.15
83488;BME280;73424;49.994;8.184;2024-03-08T04:34:14;99913.75;;;2.44;74.23
83488;BME280;73424;49.994;8.184;2024-03-08T04:36:40;99904.13;;;2.35;74.65
83488;BME280;73424;49.994;8.184;2024-03-08T04:39:05;99921.06;;;2.32;75.51
83488;BME280;73424;49.994;8.184;2024-03-08T04:41:30;99895.16;;;2.28;75.02
83488;BME280;73424;49.994;8.184;2024-03-08T04:43:57;99914.19;;;2.39;75.67
83488;BME280;73424;49.994;8.184;2024-03-08T04:46:23;99861.63;;;2.12;75.15
83488;BME280;73424;49.994;8.184;2024-03-08T04:48:48;99908.88;;;2.49;74.37
83488;BME280;73424;49.994;8.184;2024-03-08T04:51:14;99900.91;;;2.41;75.23
83488;BME280;73424;49.994;8.184;2024-03-08T04:53:41;99896.53;;;2.32;74.93
83488;BME280;73424;49.994;8.184;2024-03-08T04:56:06;99875.16;;;2.17;75.88
83488;BME280;73424;49.994;8.184;2024-03-08T04:58:35;99900.97;;;2.31;75.44
83488;BME280;73424;49.994;8.184;2024-03-08T05:01:01;99887.31;;;2.18;75.33
83488;BME280;73424;49.994;8.184;2024-03-08T05:03:26;99892.47;;;2.19;76.39
83488;BME280;73424;49.994;8.184;2024-03-08T05:05:52;99867.94;;;2.01;75.57
83488;BME280;73424;49.994;8.184;2024-03-08T05:08:18;99867.53;;;1.96;76.31
83488;BME280;73424;49.994;8.184;2024-03-08T05:10:44;99856.88;;;1.98;76.17
83488;BME280;73424;49.994;8.184;2024-03-08T05:13:09;99796.19;;;1.64;75.27
83488;BME280;73424;49.994;8.184;2024-03-08T05:15:34;99877.16;;;2.05;75.75
83488;BME280;73424;49.994;8.184;2024-03-08T05:18:00;99892.22;;;2.13;75.79
83488;BME280;73424;49.994;8.184;2024-03-08T05:20:25;99862.56;;;1.93;75.44
83488;BME280;73424;49.994;8.184;2024-03-08T05:22:51;99840.63;;;1.85;75.87
83488;BME280;73424;49.994;8.184;2024-03-08T05:25:17;99890.13;;;2.16;75.79
83488;BME280;73424;49.994;8.184;2024-03-08T05:27:42;99836.69;;;1.71;76.58
83488;BME280;73424;49.994;8.184;2024-03-08T05:30:08;99868.41;;;1.87;76.43
83488;BME280;73424;49.994;8.184;2024-03-08T05:32:40;99869.16;;;1.80;77.13
83488;BME280;73424;49.994;8.184;2024-03-08T05:35:06;99851.19;;;1.75;76.93
83488;BME280;73424;49.994;8.184;2024-03-08T05:37:32;99861.94;;;1.82;76.54
83488;BME280;73424;49.994;8.184;2024-03-08T05:39:57;99844.16;;;1.66;76.51
83488;BME280;73424;49.994;8.184;2024-03-08T05:42:23;99884.31;;;1.68;77.68
83488;BME280;73424;49.994;8.184;2024-03-08T05:44:48;99821.63;;;1.36;77.88
83488;BME280;73424;49.994;8.184;2024-03-08T05:47:14;99877.59;;;1.83;76.74
83488;BME280;73424;49.994;8.184;2024-03-08T05:49:41;99877.38;;;1.94;76.55
83488;BME280;73424;49.994;8.184;2024-03-08T05:52:09;99874.72;;;1.77;77.30
83488;BME280;73424;49.994;8.184;2024-03-08T05:54:34;99831.53;;;1.52;77.77
83488;BME280;73424;49.994;8.184;2024-03-08T05:57:00;99845.25;;;1.73;77.19
83488;BME280;73424;49.994;8.184;2024-03-08T05:59:25;99864.94;;;1.87;77.34
83488;BME280;73424;49.994;8.184;2024-03-08T06:01:51;99864.81;;;1.88;77.05
83488;BME280;73424;49.994;8.184;2024-03-08T06:04:16;99857.72;;;1.71;76.74
83488;BME280;73424;49.994;8.184;2024-03-08T06:06:43;99834.16;;;1.52;77.25
83488;BME280;73424;49.994;8.184;2024-03-08T06:09:08;99870.06;;;1.88;77.89
83488;BME280;73424;49.994;8.184;2024-03-08T06:11:42;99813.38;;;1.58;77.36
83488;BME280;73424;49.994;8.184;2024-03-08T06:14:08;99811.63;;;1.49;77.92
83488;BME280;73424;49.994;8.184;2024-03-08T06:16:33;99856.09;;;1.88;78.66
83488;BME280;73424;49.994;8.184;2024-03-08T06:19:00;99859.94;;;1.93;78.22
83488;BME280;73424;49.994;8.184;2024-03-08T06:21:28;99860.34;;;1.98;78.41
83488;BME280;73424;49.994;8.184;2024-03-08T06:23:53;99849.06;;;2.06;77.51
83488;BME280;73424;49.994;8.184;2024-03-08T06:26:23;99851.25;;;2.10;77.33
83488;BME280;73424;49.994;8.184;2024-03-08T06:28:49;99827.28;;;2.13;78.39
83488;BME280;73424;49.994;8.184;2024-03-08T06:31:16;99811.00;;;2.36;79.66
83488;BME280;73424;49.994;8.184;2024-03-08T06:33:41;99853.56;;;2.49;77.05
83488;BME280;73424;49.994;8.184;2024-03-08T06:36:06;99820.72;;;2.17;76.47
83488;BME280;73424;49.994;8.184;2024-03-08T06:38:32;99834.56;;;2.37;76.91
83488;BME280;73424;49.994;8.184;2024-03-08T06:40:57;99825.69;;;2.38;76.77
83488;BME280;73424;49.994;8.184;2024-03-08T06:43:23;99832.38;;;2.50;75.45
83488;BME280;73424;49.994;8.184;2024-03-08T06:45:50;99858.38;;;2.71;76.10
83488;BME280;73424;49.994;8.184;2024-03-08T06:48:16;99844.28;;;2.80;74.96
83488;BME280;73424;49.994;8.184;2024-03-08T06:50:42;99818.00;;;2.45;75.52
83488;BME280;73424;49.994;8.184;2024-03-08T06:53:08;99812.88;;;2.61;75.12
83488;BME280;73424;49.994;8.184;2024-03-08T06:55:33;99835.91;;;2.85;75.00
83488;BME280;73424;49.994;8.184;2024-03-08T06:57:59;99854.13;;;2.96;74.58
83488;BME280;73424;49.994;8.184;2024-03-08T07:00:24;99827.69;;;2.88;74.27
83488;BME280;73424;49.994;8.184;2024-03-08T07:02:52;99852.56;;;3.11;74.01
83488;BME280;73424;49.994;8.184;2024-03-08T07:05:19;99830.47;;;2.78;74.57
83488;BME280;73424;49.994;8.184;2024-03-08T07:07:44;99733.66;;;2.54;73.68
83488;BME280;73424;49.994;8.184;2024-03-08T07:10:10;99788.50;;;2.85;73.87
83488;BME280;73424;49.994;8.184;2024-03-08T07:12:40;99845.94;;;3.33;73.26
83488;BME280;73424;49.994;8.184;2024-03-08T07:15:06;99777.47;;;2.81;73.64
83488;BME280;73424;49.994;8.184;2024-03-08T07:17:31;99785.81;;;3.02;73.47
83488;BME280;73424;49.994;8.184;2024-03-08T07:19:59;99814.44;;;3.31;72.85
83488;BME280;73424;49.994;8.184;2024-03-08T07:22:27;99844.69;;;3.45;72.76
83488;BME280;73424;49.994;8.184;2024-03-08T07:24:52;99849.34;;;3.59;72.41
83488;BME280;73424;49.994;8.184;2024-03-08T07:27:32;99814.13;;;3.34;72.76
83488;BME280;73424;49.994;8.184;2024-03-08T07:29:59;99748.53;;;3.31;73.12
83488;BME280;73424;49.994;8.184;2024-03-08T07:32:26;99835.41;;;3.74;71.72
83488;BME280;73424;49.994;8.184;2024-03-08T07:34:53;99830.00;;;3.84;71.88
83488;BME280;73424;49.994;8.184;2024-03-08T07:37:20;99829.34;;;3.82;71.94
83488;BME280;73424;49.994;8.184;2024-03-08T07:39:46;99828.72;;;3.96;71.21
83488;BME280;73424;49.994;8.184;2024-03-08T07:42:11;99790.75;;;3.81;71.27
83488;BME280;73424;49.994;8.184;2024-03-08T07:44:37;99807.88;;;3.77;71.31
83488;BME280;73424;49.994;8.184;2024-03-08T07:47:02;99817.84;;;4.07;70.56
83488;BME280;73424;49.994;8.184;2024-03-08T07:49:29;99791.13;;;4.10;70.74
83488;BME280;73424;49.994;8.184;2024-03-08T07:51:55;99790.47;;;4.08;70.45
83488;BME280;73424;49.994;8.184;2024-03-08T07:54:21;99771.66;;;4.03;70.24
83488;BME280;73424;49.994;8.184;2024-03-08T07:56:46;99728.53;;;3.70;70.02
83488;BME280;73424;49.994;8.184;2024-03-08T07:59:12;99801.88;;;4.25;69.92
83488;BME280;73424;49.994;8.184;2024-03-08T08:01:37;99744.28;;;4.36;69.32
83488;BME280;73424;49.994;8.184;2024-03-08T08:04:03;99724.31;;;4.02;69.33
83488;BME280;73424;49.994;8.184;2024-03-08T08:06:28;99677.66;;;3.94;69.36
83488;BME280;73424;49.994;8.184;2024-03-08T08:08:57;99803.50;;;4.82;68.72
83488;BME280;73424;49.994;8.184;2024-03-08T08:11:22;99801.31;;;5.02;68.46
83488;BME280;73424;49.994;8.184;2024-03-08T08:13:47;99754.75;;;4.93;67.21
83488;BME280;73424;49.994;8.184;2024-03-08T08:16:13;99783.97;;;5.00;67.56
83488;BME280;73424;49.994;8.184;2024-03-08T08:18:38;99786.38;;;5.25;66.61
83488;BME280;73424;49.994;8.184;2024-03-08T08:21:04;99743.50;;;4.99;67.46
83488;BME280;73424;49.994;8.184;2024-03-08T08:23:34;99787.38;;;5.24;66.81
83488;BME280;73424;49.994;8.184;2024-03-08T08:25:59;99681.88;;;4.52;66.91
83488;BME280;73424;49.994;8.184;2024-03-08T08:28:26;99781.59;;;5.29;67.00
83488;BME280;73424;49.994;8.184;2024-03-08T08:30:51;99763.09;;;5.21;66.59
83488;BME280;73424;49.994;8.184;2024-03-08T08:33:17;99747.22;;;5.21;66.02
83488;BME280;73424;49.994;8.184;2024-03-08T08:35:42;99746.03;;;5.31;65.98
83488;BME280;73424;49.994;8.184;2024-03-08T08:38:07;99766.47;;;5.45;65.88
83488;BME280;73424;49.994;8.184;2024-03-08T08:40:34;99771.34;;;5.65;65.78
83488;BME280;73424;49.994;8.184;2024-03-08T08:43:01;99721.53;;;5.68;65.14
83488;BME280;73424;49.994;8.184;2024-03-08T08:45:29;99706.88;;;5.58;64.46
83488;BME280;73424;49.994;8.184;2024-03-08T08:47:55;99749.69;;;5.92;63.87
83488;BME280;73424;49.994;8.184;2024-03-08T08:50:20;99661.34;;;5.39;64.14
83488;BME280;73424;49.994;8.184;2024-03-08T08:52:48;99729.47;;;5.68;64.11
83488;BME280;73424;49.994;8.184;2024-03-08T08:55:13;99722.94;;;5.87;63.96
83488;BME280;73424;49.994;8.184;2024-03-08T08:57:40;99747.94;;;6.30;63.13
83488;BME280;73424;49.994;8.184;2024-03-08T09:00:06;99719.03;;;6.20;63.11
83488;BME280;73424;49.994;8.184;2024-03-08T09:02:36;99725.06;;;6.14;63.82
83488;BME280;73424;49.994;8.184;2024-03-08T09:05:03;99729.66;;;6.35;62.42
83488;BME280;73424;49.994;8.184;2024-03-08T09:07:28;99704.88;;;6.28;62.56
83488;BME280;73424;49.994;8.184;2024-03-08T09:09:54;99703.84;;;6.51;62.08
83488;BME280;73424;49.994;8.184;2024-03-08T09:12:24;99705.59;;;6.74;60.95
83488;BME280;73424;49.994;8.184;2024-03-08T09:14:49;99675.44;;;6.75;60.95
83488;BME280;73424;49.994;8.184;2024-03-08T09:17:15;99725.06;;;6.66;61.72
83488;BME280;73424;49.994;8.184;2024-03-08T09:19:45;99718.59;;;6.83;62.14
83488;BME280;73424;49.994;8.184;2024-03-08T09:22:10;99682.56;;;6.89;60.71
83488;BME280;73424;49.994;8.184;2024-03-08T09:24:36;99697.44;;;7.19;60.18
83488;BME280;73424;49.994;8.184;2024-03-08T09:27:01;99709.25;;;7.17;60.36
83488;BME280;73424;49.994;8.184;2024-03-08T09:29:26;99710.47;;;6.99;61.16
83488;BME280;73424;49.994;8.184;2024-03-08T09:31:52;99663.28;;;6.80;59.84
83488;BME280;73424;49.994;8.184;2024-03-08T09:34:17;99670.84;;;6.98;59.92
83488;BME280;73424;49.994;8.184;2024-03-08T09:36:44;99684.69;;;6.93;60.34
83488;BME280;73424;49.994;8.184;2024-03-08T09:39:09;99672.56;;;7.20;60.40
83488;BME280;73424;49.994;8.184;2024-03-08T09:41:34;99649.56;;;6.91;59.64
83488;BME280;73424;49.994;8.184;2024-03-08T09:44:00;99651.47;;;7.12;60.31
83488;BME280;73424;49.994;8.184;2024-03-08T09:46:26;99628.13;;;7.07;59.52
83488;BME280;73424;49.994;8.184;2024-03-08T09:48:55;99684.25;;;7.61;59.56
83488;BME280;73424;49.994;8.184;2024-03-08T09:51:27;99673.69;;;7.47;59.24
83488;BME280;73424;49.994;8.184;2024-03-08T09:53:53;99656.06;;;7.39;59.58
83488;BME280;73424;49.994;8.184;2024-03-08T09:56:19;99662.41;;;7.81;59.24
83488;BME280;73424;49.994;8.184;2024-03-08T09:58:45;99650.53;;;7.98;58.45
83488;BME280;73424;49.994;8.184;2024-03-08T10:01:33;99593.69;;;7.71;58.20
83488;BME280;73424;49.994;8.184;2024-03-08T10:03:58;99594.78;;;7.77;57.68
83488;BME280;73424;49.994;8.184;2024-03-08T10:06:24;99599.44;;;7.75;56.91
83488;BME280;73424;49.994;8.184;2024-03-08T10:08:49;99609.16;;;8.16;57.45
83488;BME280;73424;49.994;8.184;2024-03-08T10:11:17;99583.75;;;8.01;56.34
83488;BME280;73424;49.994;8.184;2024-03-08T10:13:44;99594.69;;;8.19;56.13
83488;BME280;73424;49.994;8.184;2024-03-08T10:16:11;99587.56;;;7.98;56.12
83488;BME280;73424;49.994;8.184;2024-03-08T10:18:37;99601.03;;;8.18;56.41
83488;BME280;73424;49.994;8.184;2024-03-08T10:21:03;99588.88;;;8.30;55.91
83488;BME280;73424;49.994;8.184;2024-03-08T10:23:30;99582.00;;;8.42;55.34
83488;BME280;73424;49.994;8.184;2024-03-08T10:25:55;99592.56;;;8.70;55.31
83488;BME280;73424;49.994;8.184;2024-03-08T10:28:23;99587.91;;;8.38;54.63
83488;BME280;73424;49.994;8.184;2024-03-08T10:30:50;99605.16;;;8.89;54.10
83488;BME280;73424;49.994;8.184;2024-03-08T10:33:15;99550.44;;;8.67;53.91
83488;BME280;73424;49.994;8.184;2024-03-08T10:35:40;99595.63;;;8.67;53.95
83488;BME280;73424;49.994;8.184;2024-03-08T10:38:08;99578.97;;;8.52;54.11
83488;BME280;73424;49.994;8.184;2024-03-08T10:40:37;99583.66;;;8.91;54.22
83488;BME280;73424;49.994;8.184;2024-03-08T10:43:09;99563.28;;;9.17;54.17
83488;BME280;73424;49.994;8.184;2024-03-08T10:45:38;99512.97;;;8.68;52.43
83488;BME280;73424;49.994;8.184;2024-03-08T10:50:43;99471.25;;;8.69;52.10
83488;BME280;73424;49.994;8.184;2024-03-08T10:53:13;99570.88;;;9.27;52.90
83488;BME280;73424;49.994;8.184;2024-03-08T10:55:40;99560.28;;;9.53;52.01
83488;BME280;73424;49.994;8.184;2024-03-08T10:58:06;99505.34;;;9.13;50.87
83488;BME280;73424;49.994;8.184;2024-03-08T11:00:33;99559.03;;;9.43;51.14
83488;BME280;73424;49.994;8.184;2024-03-08T11:02:58;99531.38;;;9.30;51.61
83488;BME280;73424;49.994;8.184;2024-03-08T11:05:41;99543.47;;;9.72;50.74
83488;BME280;73424;49.994;8.184;2024-03-08T11:08:17;99541.41;;;9.28;51.97
83488;BME280;73424;49.994;8.184;2024-03-08T11:10:49;99554.56;;;9.56;51.12
83488;BME280;73424;49.994;8.184;2024-03-08T11:13:34;99542.66;;;9.78;50.92
83488;BME280;73424;49.994;8.184;2024-03-08T11:16:07;99407.50;;;8.89;50.80
83488;BME280;73424;49.994;8.184;2024-03-08T11:18:35;99547.97;;;9.85;50.91
83488;BME280;73424;49.994;8.184;2024-03-08T11:21:18;99520.94;;;9.95;49.97
83488;BME280;73424;49.994;8.184;2024-03-08T11:24:02;99557.81;;;9.98;50.48
83488;BME280;73424;49.994;8.184;2024-03-08T11:26:30;99526.66;;;9.85;51.09
83488;BME280;73424;49.994;8.184;2024-03-08T11:32:07;99529.09;;;10.13;50.46
83488;BME280;73424;49.994;8.184;2024-03-08T11:34:32;99532.81;;;10.18;49.74
83488;BME280;73424;49.994;8.184;2024-03-08T11:36:58;99535.44;;;10.31;49.76
83488;BME280;73424;49.994;8.184;2024-03-08T11:39:24;99536.50;;;10.11;49.32
83488;BME280;73424;49.994;8.184;2024-03-08T11:41:49;99454.72;;;9.92;49.67
83488;BME280;73424;49.994;8.184;2024-03-08T11:44:15;99439.75;;;9.97;48.44
83488;BME280;73424;49.994;8.184;2024-03-08T11:46:42;99492.81;;;10.18;49.06
83488;BME280;73424;49.994;8.184;2024-03-08T11:49:12;99480.94;;;10.08;49.77
83488;BME280;73424;49.994;8.184;2024-03-08T11:51:37;99499.53;;;10.34;49.14
83488;BME280;73424;49.994;8.184;2024-03-08T11:54:03;99525.16;;;10.48;49.25
83488;BME280;73424;49.994;8.184;2024-03-08T11:56:28;99507.34;;;10.35;50.04
83488;BME280;73424;49.994;8.184;2024-03-08T11:58:55;99514.06;;;10.58;49.55
83488;BME280;73424;49.994;8.184;2024-03-08T12:01:24;99500.63;;;10.71;49.48
83488;BME280;73424;49.994;8.184;2024-03-08T12:03:54;99466.25;;;10.56;48.23
83488;BME280;73424;49.994;8.184;2024-03-08T12:06:20;99501.94;;;10.55;49.26
83488;BME280;73424;49.994;8.184;2024-03-08T12:08:46;99458.91;;;10.45;48.78
83488;BME280;73424;49.994;8.184;2024-03-08T12:11:14;99450.81;;;10.65;48.47
83488;BME280;73424;49.994;8.184;2024-03-08T12:13:41;99487.53;;;10.69;48.84
83488;BME280;73424;49.994;8.184;2024-03-08T12:16:06;99446.53;;;10.57;49.19
83488;BME280;73424;49.994;8.184;2024-03-08T12:18:34;99473.44;;;10.93;49.13
83488;BME280;73424;49.994;8.184;2024-03-08T12:21:07;99465.81;;;10.97;48.36
83488;BME280;73424;49.994;8.184;2024-03-08T12:23:37;99456.50;;;10.75;48.90
83488;BME280;73424;49.994;8.184;2024-03-08T12:26:14;99466.09;;;11.14;48.63
83488;BME280;73424;49.994;8.184;2024-03-08T12:28:41;99454.94;;;10.61;49.23
83488;BME280;73424;49.994;8.184;2024-03-08T12:31:08;99456.16;;;10.96;48.52
83488;BME280;73424;49.994;8.184;2024-03-08T12:33:50;99463.81;;;11.17;48.91
83488;BME280;73424;49.994;8.184;2024-03-08T12:36:16;99415.00;;;11.10;48.74
83488;BME280;73424;49.994;8.184;2024-03-08T12:38:48;99455.03;;;11.10;48.69
83488;BME280;73424;49.994;8.184;2024-03-08T12:41:15;99427.91;;;10.88;48.39
83488;BME280;73424;49.994;8.184;2024-03-08T12:43:41;99449.47;;;11.43;47.86
83488;BME280;73424;49.994;8.184;2024-03-08T12:46:07;99448.25;;;11.39;48.09
83488;BME280;73424;49.994;8.184;2024-03-08T12:48:34;99418.16;;;10.69;49.17
83488;BME280;73424;49.994;8.184;2024-03-08T12:51:00;99408.22;;;10.83;49.11
83488;BME280;73424;49.994;8.184;2024-03-08T12:53:26;99427.09;;;10.88;49.05
83488;BME280;73424;49.994;8.184;2024-03-08T12:55:54;99434.38;;;11.30;48.86
83488;BME280;73424;49.994;8.184;2024-03-08T12:58:21;99393.31;;;11.50;48.37
83488;BME280;73424;49.994;8.184;2024-03-08T13:00:46;99391.41;;;11.32;48.52
83488;BME280;73424;49.994;8.184;2024-03-08T13:03:12;99401.34;;;11.25;48.28
83488;BME280;73424;49.994;8.184;2024-03-08T13:05:37;99415.63;;;11.37;48.79
83488;BME280;73424;49.994;8.184;2024-03-08T13:08:06;99410.75;;;11.52;48.17
83488;BME280;73424;49.994;8.184;2024-03-08T13:10:31;99406.06;;;11.47;49.45